Flight Track Log - Related Links

Times and Time Zones

All times are in EDT time to prevent confusion due to time zone crossing. See the DAL2288 flight status page for this flight to view local times or setup timezone preferences in your user account.

Time Position Orientation Groundspeed Altitude Reporting Facility
EDT Latitude Longitude Course Direction KTS MPH feet Rate Location/Type
Tue 12:48:31 PM 33.6478 -84.3733 53° Northeast 451 519 2,700  Level Atlanta Center
Tue 12:49:31 PM 33.6625 -84.2983 77° East 348 400 4,900 2,550 Climbing Atlanta Center
Tue 12:50:00 PM 33.7316 -84.0085 54° Northeast  Level FlightAware Approximate
Tue 12:50:31 PM 33.6772 -84.2136 78° East 272 313 7,800  Level Atlanta Center
Tue 12:51:00 PM 33.8010 -83.8930 54° Northeast  Level FlightAware Approximate
Tue 12:51:31 PM 33.7086 -84.1086 70° East 294 338 10,600  Level Atlanta Center
Tue 12:52:00 PM 33.8708 -83.7778 48° Northeast  Level FlightAware Approximate
Tue 12:52:31 PM 33.7525 -84.0014 64° Northeast 327 376 12,300  Level Atlanta Center
Tue 12:53:00 PM 33.9468 -83.6685 53° Northeast  Level FlightAware Approximate
Tue 12:53:31 PM 33.8172 -83.9014 52° Northeast 365 420 14,500  Level Atlanta Center
Tue 12:54:31 PM 33.8858 -83.7886 54° Northeast 400 460 16,600 2,200 Climbing Atlanta Center
Tue 12:55:31 PM 33.9564 -83.6731 54° Northeast 417 480 18,900 2,100 Climbing Atlanta Center
Tue 12:56:31 PM 34.0292 -83.5575 53° Northeast 427 491 20,800 1,800 Climbing Atlanta Center
Tue 12:57:31 PM 34.1058 -83.4367 53° Northeast 442 509 22,500 1,100 Climbing Atlanta Center
Tue 12:58:31 PM 34.1844 -83.3156 52° Northeast 453 521 23,000 750 Climbing Atlanta Center
Tue 12:59:31 PM 34.2608 -83.1867 54° Northeast 462 532 24,000 1,200 Climbing Atlanta Center
Tue 01:00:31 PM 34.3392 -83.0578 54° Northeast 468 539 25,400 1,550 Climbing Atlanta Center
Tue 01:01:31 PM 34.4217 -82.9283 52° Northeast 485 558 27,100 1,850 Climbing Atlanta Center
Tue 01:02:31 PM 34.5039 -82.7986 52° Northeast 485 558 29,100 1,850 Climbing Atlanta Center
Tue 01:03:31 PM 34.5717 -82.6867 54° Northeast 474 545 30,800 1,600 Climbing Atlanta Center
Tue 01:04:31 PM 34.6494 -82.5642 52° Northeast 468 539 32,300 1,400 Climbing Atlanta Center
Tue 01:05:31 PM 34.7250 -82.4339 55° Northeast 461 531 33,600 3,350 Climbing Atlanta Center
Tue 01:06:31 PM 34.8025 -82.3111 52° Northeast 461 531 39,000 1,200 Climbing Atlanta Center
Tue 01:07:31 PM 34.8758 -82.1856 55° Northeast 456 525 36,000 -1,500 Descending Atlanta Center
Tue 01:08:31 PM 34.9614 -82.0517 52° Northeast 450 518 36,000  Level Atlanta Center
Tue 01:09:31 PM 35.0367 -81.9231 54° Northeast 455 524 36,000 50 Level Atlanta Center
Tue 01:10:31 PM 35.0992 -81.8072 57° Northeast 455 524 36,100 700 Climbing Atlanta Center
Tue 01:11:31 PM 35.1678 -81.6758 57° Northeast 465 535 37,400 1,150 Climbing Atlanta Center
Tue 01:12:31 PM 35.2361 -81.5467 57° Northeast 459 528 38,400 800 Climbing Atlanta Center
Tue 01:13:31 PM 35.3042 -81.4150 58° Northeast 454 522 39,000 300 Climbing Atlanta Center
Tue 01:14:31 PM 35.3722 -81.2828 58° Northeast 454 522 39,000  Level Atlanta Center
Tue 01:15:31 PM 35.4400 -81.1456 59° Northeast 464 534 39,000  Level Atlanta Center
Tue 01:16:31 PM 35.5119 -81.0103 57° Northeast 469 540 39,000  Level Atlanta Center
Tue 01:17:31 PM 35.5817 -80.8775 57° Northeast 463 533 39,000  Level Atlanta Center
Tue 01:19:14 PM 35.7006 -80.6486 57° Northeast 470 541 39,000 37 Level Washington Center
Tue 01:20:15 PM 35.7711 -80.5125 57° Northeast 465 535 39,100  Climbing Washington Center
Tue 01:21:12 PM 35.8389 -80.3808 58° Northeast 465 535 39,000 -50 Descending Washington Center
Tue 01:22:14 PM 35.9069 -80.2439 58° Northeast 465 535 39,000  Level Washington Center
Tue 01:23:14 PM 35.9747 -80.1094 58° Northeast 460 529 39,000  Level Washington Center
Tue 01:24:13 PM 36.0531 -79.9672 56° Northeast 455 524 39,000  Level Washington Center
Tue 01:25:13 PM 36.1289 -79.8353 55° Northeast 460 529 39,000  Level Washington Center
Tue 01:26:14 PM 36.2022 -79.7028 56° Northeast 465 535 39,000  Level Washington Center
Tue 01:27:14 PM 36.2756 -79.5725 55° Northeast 465 535 39,000  Level Washington Center
Tue 01:28:15 PM 36.3508 -79.4397 55° Northeast 465 535 39,000  Level Washington Center
Tue 01:29:15 PM 36.4131 -79.3189 57° Northeast 465 535 39,000  Level Washington Center
Tue 01:30:12 PM 36.4881 -79.1881 54° Northeast 460 529 39,000 51 Level Washington Center
Tue 01:31:13 PM 36.5736 -79.0472 53° Northeast 460 529 39,100  Climbing Washington Center
Tue 01:32:14 PM 36.6461 -78.9133 56° Northeast 460 529 39,000 -50 Descending Washington Center
Tue 01:33:14 PM 36.7167 -78.7764 57° Northeast 465 535 39,000  Level Washington Center
Tue 01:34:15 PM 36.7844 -78.6547 55° Northeast 465 535 39,000  Level Washington Center
Tue 01:35:13 PM 36.8708 -78.5414 46° Northeast 465 535 39,000  Level Washington Center
Tue 01:36:14 PM 36.9653 -78.4358 42° Northeast 460 529 39,000  Level Washington Center
Tue 01:37:14 PM 37.0597 -78.3219 44° Northeast 455 524 39,000  Level Washington Center
Tue 01:38:13 PM 37.1647 -78.2008 43° Northeast 460 529 39,000 -50 Level Washington Center
Tue 01:39:15 PM 37.2564 -78.0969 42° Northeast 452 520 38,900 -295 Descending Washington Center
Tue 01:40:15 PM 37.3506 -77.9903 42° Northeast 446 513 38,400 -458 Descending Washington Center
Tue 01:41:13 PM 37.4464 -77.8808 42° Northeast 446 513 38,000 -202 Descending Washington Center
Tue 01:42:14 PM 37.5425 -77.7711 42° Northeast 446 513 38,000  Level Washington Center
Tue 01:43:15 PM 37.6381 -77.6608 42° Northeast 446 513 38,000  Level Washington Center
Tue 01:44:13 PM 37.7339 -77.5506 42° Northeast 451 519 38,000  Level Washington Center
Tue 01:45:13 PM 37.8275 -77.4400 43° Northeast 451 519 38,000  Level Washington Center
Tue 01:46:14 PM 37.9250 -77.3292 42° Northeast 451 519 38,000  Level Washington Center
Tue 01:47:14 PM 38.0056 -77.2308 44° Northeast 451 519 38,000  Level Washington Center
Tue 01:48:15 PM 38.1008 -77.1194 43° Northeast 451 519 38,000  Level Washington Center
Tue 01:49:15 PM 38.2089 -76.9922 43° Northeast 459 528 38,000  Level Washington Center
Tue 01:50:13 PM 38.3019 -76.8803 43° Northeast 459 528 38,000  Level Washington Center
Tue 01:51:13 PM 38.3842 -76.7836 43° Northeast 454 522 38,000  Level Washington Center
Tue 01:52:14 PM 38.4769 -76.6711 43° Northeast 449 517 38,000  Level Washington Center
Tue 01:53:15 PM 38.5717 -76.5608 42° Northeast 449 517 38,000  Level Washington Center
Tue 01:54:15 PM 38.6644 -76.4478 44° Northeast 449 517 38,000  Level Washington Center
Tue 01:55:13 PM 38.7589 -76.3344 43° Northeast 449 517 38,000  Level Washington Center
Tue 01:56:13 PM 38.8511 -76.2208 44° Northeast 449 517 38,000  Level Washington Center
Tue 01:57:14 PM 38.9603 -76.0961 42° Northeast 454 522 38,000  Level Washington Center
Tue 01:58:15 PM 39.0522 -75.9844 43° Northeast 454 522 38,000  Level Washington Center
Tue 01:59:13 PM 39.1444 -75.8700 44° Northeast 454 522 38,000  Level Washington Center
Tue 02:00:13 PM 39.2364 -75.7603 43° Northeast 448 516 38,000 -50 Level Washington Center
Tue 02:01:14 PM 39.3258 -75.6478 44° Northeast 448 516 37,900 -492 Descending Washington Center
Tue 02:02:15 PM 39.4178 -75.5297 45° Northeast 448 516 37,000 -318 Descending Washington Center
Tue 02:04:04 PM 39.5836 -75.3286 43° Northeast 478 550 37,000  Level New York Center
Tue 02:05:04 PM 39.6778 -75.2106 44° Northeast 478 550 37,000  Level New York Center
Tue 02:06:05 PM 39.7697 -75.0867 46° Northeast 476 548 37,000  Level New York Center
Tue 02:07:05 PM 39.8614 -74.9733 43° Northeast 470 541 37,000  Level New York Center
Tue 02:08:06 PM 39.9642 -74.8414 45° Northeast 463 533 37,000  Level New York Center
Tue 02:09:06 PM 40.0453 -74.7214 49° Northeast 455 524 37,000  Level New York Center
Tue 02:10:04 PM 40.1289 -74.5906 50° Northeast 450 518 37,000  Level New York Center
Tue 02:11:05 PM 40.2122 -74.4619 50° Northeast 460 529 37,000  Level New York Center
Tue 02:12:04 PM 40.2953 -74.3303 50° Northeast 465 535 37,000  Level New York Center
Tue 02:13:04 PM 40.3761 -74.2064 49° Northeast 465 535 37,000  Level New York Center
Tue 02:14:05 PM 40.4592 -74.0742 50° Northeast 460 529 37,000 -740 Level New York Center
Tue 02:15:38 PM 40.5800 -73.8911 49° Northeast 455 524 35,100 -1,882 Descending Boston Center
Tue 02:16:38 PM 40.6608 -73.7614 51° Northeast 455 524 32,200 -3,250 Descending Boston Center
Tue 02:17:38 PM 40.7417 -73.6233 52° Northeast 460 529 28,600 -3,600 Descending Boston Center
Tue 02:18:38 PM 40.8242 -73.4850 52° Northeast 470 541 25,000 -2,450 Descending Boston Center
Tue 02:19:38 PM 40.9128 -73.3575 47° Northeast 470 541 23,700 -1,000 Descending Boston Center
Tue 02:20:38 PM 40.9928 -73.2431 47° Northeast 447 514 23,000 -350 Descending Boston Center
Tue 02:21:38 PM 41.0686 -73.1311 48° Northeast 424 488 23,000  Level Boston Center
Tue 02:22:38 PM 41.1464 -73.0133 49° Northeast 411 473 23,000  Level Boston Center
Tue 02:23:38 PM 41.2200 -72.9008 49° Northeast 411 473 23,000  Level Boston Center
Tue 02:24:38 PM 41.2767 -72.7606 62° Northeast 416 479 23,000  Level Boston Center
Tue 02:25:38 PM 41.3292 -72.6197 64° Northeast 421 484 23,000  Level Boston Center
Tue 02:26:38 PM 41.3833 -72.4706 64° Northeast 416 479 23,000  Level Boston Center
Tue 02:27:38 PM 41.4333 -72.3350 64° Northeast 411 473 23,000 -300 Level Boston Center
Tue 02:28:38 PM 41.4686 -72.2433 63° Northeast 399 459 22,400 -1,250 Descending Boston Center
Tue 02:29:38 PM 41.5164 -72.1103 64° Northeast 405 466 20,500 -2,250 Descending Boston Center
Tue 02:30:38 PM 41.5700 -71.9517 66° East 399 459 17,900 -2,350 Descending Boston Center
Tue 02:31:38 PM 41.6089 -71.8208 68° East 387 445 15,800 -2,100 Descending Boston Center
Tue 02:32:38 PM 41.6478 -71.6956 67° East 373 429 13,700 -2,050 Descending Boston Center
Tue 02:33:38 PM 41.6822 -71.5728 69° East 368 423 11,700 -1,300 Descending Boston Center
Tue 02:34:38 PM 41.7189 -71.4639 66° East 344 396 11,100 -350 Descending Boston Center
Tue 02:35:38 PM 41.7619 -71.3769 56° Northeast 306 352 11,000 -50 Descending Boston Center
Tue 02:36:38 PM 41.8194 -71.3036 44° Northeast 287 330 11,000 -450 Level Boston Center
Tue 02:37:38 PM 41.8836 -71.2439 35° Northeast 276 318 10,100 -1,190 Descending Boston Center
Tue 02:38:39 PM 41.9603 -71.2089 19° North 276 318 8,600 -1,650 Descending Boston Center
Tue 02:39:38 PM 42.0286 -71.1767 19° North 271 312 6,800 -1,765 Descending Boston Center
Tue 02:40:38 PM 42.0928 -71.1447 20° North 258 297 5,100 -1,546 Descending Boston Center
Tue 02:41:15 PM 42.1333 -71.1167 27° Northeast 243 280 4,300 -1,175 Descending KA90
Tue 02:42:15 PM 42.2000 -71.0833 20° North 217 250 3,200 -1,100 Descending KA90

Login

Don't have an account? Register now (free) for customized features, flight alerts, and more!